Terminal Aerodrome Forecast
Issued by NWS

Home | Current Version | Previous Version | Text Only | Print | Product List | Glossary On
Versions: 1 2 3 4 5 6 7 8 9 10 11 12 13 14 15 16 17 18 19 20 21 22 23 24
550
FTUS43 KDLH 231415 AAA
TAFHIB
TAF AMD
KHIB 231415Z 2314/2412 24003KT P6SM FEW007 OVC023
     FM231500 29003KT 2SM BR OVC003
     FM231900 28003KT 6SM BR OVC010
     FM240600 00000KT 3SM BR OVC006=

USA.gov is the U.S. government's official web portal to all federal, state and local government web resources and services.